createdAt,value
2022-11-06T00:02:17.430Z,12.93
2022-11-06T00:05:15.172Z,13.47
2022-11-06T00:07:50.109Z,12.33
2022-11-06T00:10:25.322Z,12.17
2022-11-06T00:13:00.717Z,12.30
2022-11-06T00:15:35.573Z,13.60
2022-11-06T00:18:10.829Z,12.97
2022-11-06T00:20:45.997Z,12.93
2022-11-06T00:23:20.873Z,13.27
2022-11-06T00:25:56.607Z,12.70
2022-11-06T00:28:31.569Z,12.13
2022-11-06T00:31:15.494Z,12.00
2022-11-06T00:33:51.318Z,12.67
2022-11-06T00:36:30.211Z,12.30
2022-11-06T00:39:05.150Z,11.67
2022-11-06T00:41:40.031Z,12.27
2022-11-06T00:44:15.031Z,11.80
2022-11-06T00:46:49.867Z,13.10
2022-11-06T00:49:24.697Z,12.13
2022-11-06T00:51:59.542Z,12.30
2022-11-06T00:54:34.408Z,12.10
2022-11-06T00:57:09.350Z,12.50
2022-11-06T00:59:44.176Z,12.70
2022-11-06T01:02:19.685Z,12.43
2022-11-06T01:04:54.589Z,12.07
2022-11-06T01:07:29.466Z,12.40
2022-11-06T01:10:05.495Z,13.53
2022-11-06T01:12:40.355Z,14.37
2022-11-06T01:15:15.180Z,13.00
2022-11-06T01:17:50.005Z,13.97
2022-11-06T01:20:24.823Z,13.70
2022-11-06T01:22:59.652Z,12.57
2022-11-06T01:25:34.468Z,13.60
2022-11-06T01:28:09.410Z,13.43
2022-11-06T01:30:44.373Z,13.20
2022-11-06T01:33:19.579Z,11.90
2022-11-06T01:35:54.407Z,13.67
2022-11-06T01:38:29.393Z,12.03
2022-11-06T01:41:04.406Z,13.00
2022-11-06T01:43:57.391Z,13.40
2022-11-06T01:46:36.631Z,12.67
2022-11-06T01:49:16.279Z,14.17
2022-11-06T01:51:57.430Z,13.93
2022-11-06T01:54:36.601Z,12.67
2022-11-06T01:57:12.823Z,13.53
2022-11-06T01:59:47.820Z,12.13
2022-11-06T02:02:23.464Z,13.77
2022-11-06T02:04:58.416Z,12.37
2022-11-06T02:07:34.121Z,13.17
2022-11-06T02:10:09.594Z,11.60
2022-11-06T02:13:25.285Z,12.80
2022-11-06T02:16:39.033Z,12.60
2022-11-06T02:19:48.010Z,13.17
2022-11-06T02:22:43.047Z,13.27
2022-11-06T02:25:52.306Z,13.27
2022-11-06T02:28:35.050Z,13.17
2022-11-06T02:31:18.355Z,13.60
2022-11-06T02:34:00.149Z,13.17
2022-11-06T02:36:51.661Z,13.53
2022-11-06T02:39:29.374Z,14.20
2022-11-06T02:42:07.630Z,12.60
2022-11-06T02:44:44.485Z,12.87
2022-11-06T02:47:21.279Z,12.07
2022-11-06T02:50:09.446Z,13.10
2022-11-06T02:53:00.781Z,14.43
2022-11-06T02:55:44.235Z,14.00
2022-11-06T02:58:29.767Z,14.20
2022-11-06T03:01:27.788Z,14.33
2022-11-06T03:04:29.820Z,14.67
2022-11-06T03:07:21.001Z,14.33
2022-11-06T03:09:56.557Z,14.70
2022-11-06T03:12:33.733Z,13.37
2022-11-06T03:15:33.128Z,13.90
2022-11-06T03:18:30.620Z,13.80
2022-11-06T03:21:25.478Z,13.67
2022-11-06T03:24:31.193Z,14.57
2022-11-06T03:27:25.973Z,12.90
2022-11-06T03:30:06.649Z,13.97
2022-11-06T03:33:00.840Z,12.77
2022-11-06T03:35:47.721Z,14.50
2022-11-06T03:38:31.216Z,12.30
2022-11-06T03:41:23.289Z,11.10
2022-11-06T03:44:01.699Z,12.87
2022-11-06T03:46:44.221Z,9.63
2022-11-06T03:49:29.334Z,10.03
2022-11-06T03:52:22.658Z,9.73
2022-11-06T03:55:15.106Z,10.40
2022-11-06T03:57:53.251Z,10.67
2022-11-06T04:00:28.333Z,11.10
2022-11-06T04:03:23.963Z,10.00
2022-11-06T04:06:22.021Z,10.23
2022-11-06T04:09:21.832Z,10.37
2022-11-06T04:12:20.312Z,10.47
2022-11-06T04:14:57.937Z,9.90
2022-11-06T04:17:33.813Z,9.13
2022-11-06T04:20:38.382Z,10.50
2022-11-06T04:24:13.694Z,9.47
2022-11-06T04:27:06.200Z,9.60
2022-11-06T04:30:12.779Z,10.20
2022-11-06T04:33:02.695Z,9.30
2022-11-06T04:36:02.148Z,9.17
2022-11-06T04:39:04.312Z,8.57
2022-11-06T04:41:53.637Z,9.53
2022-11-06T04:44:38.547Z,9.07
2022-11-06T04:47:19.046Z,9.80
2022-11-06T04:49:58.561Z,8.97
2022-11-06T04:52:34.614Z,8.20
2022-11-06T04:55:09.783Z,9.97
2022-11-06T04:57:44.776Z,8.97
2022-11-06T05:00:20.035Z,8.57
2022-11-06T05:02:54.974Z,8.73
2022-11-06T05:05:30.043Z,7.97
2022-11-06T05:08:05.364Z,8.43
2022-11-06T05:10:41.141Z,9.53
2022-11-06T05:13:16.325Z,9.07
2022-11-06T05:15:57.543Z,9.07
2022-11-06T05:18:33.094Z,10.03
2022-11-06T05:21:26.357Z,9.87
2022-11-06T05:24:01.370Z,9.60
2022-11-06T05:26:36.416Z,9.50
2022-11-06T05:29:13.082Z,8.40
2022-11-06T05:31:48.051Z,9.87
2022-11-06T05:34:23.005Z,8.70
2022-11-06T05:36:58.160Z,8.70
2022-11-06T05:39:35.542Z,8.30
2022-11-06T05:42:12.841Z,9.30
2022-11-06T05:44:47.731Z,9.40
2022-11-06T05:47:22.747Z,8.47
2022-11-06T05:49:57.724Z,8.93
2022-11-06T05:52:34.740Z,8.50
2022-11-06T05:55:14.450Z,8.97
2022-11-06T05:57:50.190Z,7.97
2022-11-06T06:00:25.392Z,8.20
2022-11-06T06:03:02.440Z,8.70
2022-11-06T06:05:37.633Z,8.40
2022-11-06T06:08:13.013Z,8.87
2022-11-06T06:10:48.636Z,8.83
2022-11-06T06:13:23.574Z,8.70
2022-11-06T06:16:02.647Z,9.77
2022-11-06T06:18:37.778Z,9.10
2022-11-06T06:21:12.678Z,8.10
2022-11-06T06:23:47.660Z,8.13
2022-11-06T06:26:22.590Z,8.63
2022-11-06T06:28:57.756Z,8.97
2022-11-06T06:31:33.111Z,9.20
2022-11-06T06:34:08.168Z,8.10
2022-11-06T06:36:43.230Z,8.87
2022-11-06T06:39:19.990Z,8.57
2022-11-06T06:41:54.966Z,8.57
2022-11-06T06:44:29.964Z,7.57
2022-11-06T06:47:05.051Z,8.40
2022-11-06T06:49:40.031Z,7.80
2022-11-06T06:52:15.200Z,8.60
2022-11-06T06:54:50.178Z,7.87
2022-11-06T06:57:25.284Z,7.63
2022-11-06T07:00:00.208Z,8.60
2022-11-06T07:02:35.298Z,8.20
2022-11-06T07:05:11.263Z,8.83
2022-11-06T07:07:46.764Z,6.57
2022-11-06T07:10:21.744Z,7.27
2022-11-06T07:13:05.155Z,7.17
2022-11-06T07:15:40.088Z,7.90
2022-11-06T07:18:15.317Z,7.60
2022-11-06T07:20:51.659Z,7.20
2022-11-06T07:23:27.632Z,7.03
2022-11-06T07:26:04.109Z,6.93
2022-11-06T07:28:39.253Z,7.97
2022-11-06T07:31:14.792Z,8.00
2022-11-06T07:33:49.876Z,7.30
2022-11-06T07:36:24.887Z,8.10
2022-11-06T07:38:59.838Z,7.90
2022-11-06T07:41:35.009Z,7.77
2022-11-06T07:44:10.274Z,8.53
2022-11-06T07:46:45.226Z,8.73
2022-11-06T07:49:20.161Z,8.67
2022-11-06T07:51:55.110Z,8.90
2022-11-06T07:54:30.069Z,7.73
2022-11-06T07:57:05.062Z,7.80
2022-11-06T07:59:40.068Z,7.30
2022-11-06T08:02:15.236Z,7.97
2022-11-06T08:04:50.288Z,8.03
2022-11-06T08:07:25.228Z,6.77
2022-11-06T08:10:00.257Z,6.93
2022-11-06T08:12:35.725Z,6.63
2022-11-06T08:15:11.003Z,6.57
2022-11-06T08:17:46.000Z,7.53
2022-11-06T08:20:20.927Z,7.33
2022-11-06T08:23:00.617Z,6.40
2022-11-06T08:25:35.597Z,6.33
2022-11-06T08:28:11.545Z,6.90
2022-11-06T08:30:46.811Z,7.47
2022-11-06T08:33:23.144Z,6.53
2022-11-06T08:36:03.295Z,6.67
2022-11-06T08:38:38.441Z,6.60
2022-11-06T08:41:13.578Z,7.00
2022-11-06T08:43:52.245Z,7.20
2022-11-06T08:46:27.328Z,6.70
2022-11-06T08:49:02.324Z,6.90
2022-11-06T08:51:37.312Z,7.40
2022-11-06T08:54:12.429Z,5.83
2022-11-06T08:56:47.558Z,6.90
2022-11-06T08:59:22.548Z,6.23
2022-11-06T09:01:58.039Z,7.00
2022-11-06T09:04:37.284Z,7.80
2022-11-06T09:07:16.433Z,8.40
2022-11-06T09:09:51.444Z,7.00
2022-11-06T09:12:26.479Z,6.20
2022-11-06T09:15:02.582Z,7.00
2022-11-06T09:17:48.903Z,7.00
2022-11-06T09:20:25.076Z,7.97
2022-11-06T09:23:06.343Z,6.83
2022-11-06T09:25:41.330Z,7.63
2022-11-06T09:28:17.457Z,7.27
2022-11-06T09:30:55.363Z,7.33
2022-11-06T09:33:31.544Z,6.37
2022-11-06T09:36:07.438Z,6.70
2022-11-06T09:38:42.925Z,7.73
2022-11-06T09:41:41.460Z,7.10
2022-11-06T09:44:44.069Z,6.20
2022-11-06T09:47:28.434Z,5.90
2022-11-06T09:50:12.900Z,5.87
2022-11-06T09:52:53.111Z,6.17
2022-11-06T09:55:34.631Z,6.13
2022-11-06T09:58:17.356Z,5.30
2022-11-06T10:00:54.713Z,5.47
2022-11-06T10:03:50.700Z,5.33
2022-11-06T10:06:27.745Z,5.30
2022-11-06T10:09:07.038Z,6.77
2022-11-06T10:11:58.258Z,6.83
2022-11-06T10:15:08.736Z,6.63
2022-11-06T10:18:33.357Z,7.67
2022-11-06T10:21:20.083Z,7.03
2022-11-06T10:24:00.265Z,6.40
2022-11-06T10:26:51.782Z,6.17
2022-11-06T10:30:04.026Z,5.80
2022-11-06T10:33:43.899Z,5.40
2022-11-06T10:36:49.889Z,6.40
2022-11-06T10:39:36.711Z,5.10
2022-11-06T10:42:22.655Z,6.43
2022-11-06T10:45:15.281Z,5.07
2022-11-06T10:48:00.044Z,5.47
2022-11-06T10:51:04.783Z,4.47
2022-11-06T10:54:06.904Z,6.03
2022-11-06T10:57:26.109Z,6.23
2022-11-06T11:00:01.122Z,5.80
2022-11-06T11:02:40.474Z,6.03
2022-11-06T11:05:20.239Z,5.60
2022-11-06T11:07:55.280Z,5.80
2022-11-06T11:10:34.097Z,5.70
2022-11-06T11:13:21.209Z,5.90
2022-11-06T11:15:56.353Z,5.03
2022-11-06T11:18:31.385Z,5.27
2022-11-06T11:21:08.066Z,5.20
2022-11-06T11:23:45.011Z,4.70
2022-11-06T11:26:24.102Z,5.03
2022-11-06T11:29:12.883Z,4.67
2022-11-06T11:32:14.883Z,3.70
2022-11-06T11:34:56.823Z,3.97
2022-11-06T11:37:36.018Z,3.20
2022-11-06T11:40:20.989Z,3.23
2022-11-06T11:43:22.929Z,3.40
2022-11-06T11:46:10.048Z,3.20
2022-11-06T11:48:55.974Z,3.23
2022-11-06T11:51:44.787Z,3.40
2022-11-06T11:54:26.820Z,3.83
2022-11-06T11:57:18.378Z,2.90
2022-11-06T12:00:00.429Z,3.70
2022-11-06T12:02:43.303Z,3.43
2022-11-06T12:05:40.058Z,3.20
2022-11-06T12:08:24.903Z,3.30
2022-11-06T12:11:04.921Z,3.03
2022-11-06T12:13:39.921Z,4.00
2022-11-06T12:16:18.601Z,3.70
2022-11-06T12:18:59.100Z,4.17
2022-11-06T12:21:39.429Z,3.40
2022-11-06T12:24:42.674Z,4.63
2022-11-06T12:27:28.078Z,3.93
2022-11-06T12:30:15.290Z,4.10
2022-11-06T12:33:10.550Z,3.57
2022-11-06T12:36:08.189Z,3.90
2022-11-06T12:39:02.146Z,3.90
2022-11-06T12:41:42.420Z,3.13
2022-11-06T12:44:18.046Z,3.40
2022-11-06T12:47:08.313Z,2.77
2022-11-06T12:50:01.239Z,3.40
2022-11-06T12:53:10.796Z,3.00
2022-11-06T12:56:30.383Z,2.43
2022-11-06T12:59:35.547Z,3.50
2022-11-06T13:03:02.281Z,2.33
2022-11-06T13:06:05.913Z,3.10
2022-11-06T13:09:14.081Z,3.17
2022-11-06T13:12:05.559Z,3.03
2022-11-06T13:15:25.102Z,3.03
2022-11-06T13:18:31.278Z,3.20
2022-11-06T13:21:41.947Z,3.63
2022-11-06T13:24:33.977Z,4.40
2022-11-06T13:27:36.715Z,3.07
2022-11-06T13:30:22.831Z,4.10
2022-11-06T13:33:30.426Z,3.70
2022-11-06T13:36:07.407Z,3.23
2022-11-06T13:38:52.530Z,2.90
2022-11-06T13:41:30.661Z,2.87
2022-11-06T13:44:16.553Z,2.43
2022-11-06T13:47:20.822Z,2.57
2022-11-06T13:50:14.630Z,2.83
2022-11-06T13:53:02.074Z,2.40
2022-11-06T13:55:42.818Z,2.30
2022-11-06T13:59:04.211Z,2.40
2022-11-06T14:01:42.247Z,1.80
2022-11-06T14:04:53.406Z,1.83
2022-11-06T14:07:31.791Z,1.90
2022-11-06T14:10:20.690Z,2.10
2022-11-06T14:12:55.640Z,2.30
2022-11-06T14:15:39.708Z,2.53
2022-11-06T14:18:23.740Z,3.50
2022-11-06T14:21:49.005Z,4.10
2022-11-06T14:24:34.040Z,3.37
2022-11-06T14:27:24.176Z,3.50
2022-11-06T14:30:07.781Z,3.70
2022-11-06T14:32:47.297Z,3.30
2022-11-06T14:35:50.089Z,3.00
2022-11-06T14:38:34.554Z,2.80
2022-11-06T14:41:34.319Z,2.63
2022-11-06T14:44:25.095Z,2.63
2022-11-06T14:47:03.597Z,2.13
2022-11-06T14:49:50.135Z,2.37
2022-11-06T14:52:25.630Z,2.67
2022-11-06T14:55:06.157Z,2.20
2022-11-06T14:57:53.072Z,2.07
2022-11-06T15:00:55.931Z,1.90
2022-11-06T15:03:51.659Z,2.33
2022-11-06T15:06:29.710Z,1.97
2022-11-06T15:09:23.061Z,2.07
2022-11-06T15:12:05.383Z,2.40
2022-11-06T15:14:40.228Z,2.50
2022-11-06T15:17:16.581Z,2.60
2022-11-06T15:20:10.842Z,2.10
2022-11-06T15:22:59.450Z,1.90
2022-11-06T15:25:37.530Z,2.73
2022-11-06T15:28:19.281Z,2.27
2022-11-06T15:31:08.108Z,2.50
2022-11-06T15:33:58.186Z,2.50
2022-11-06T15:36:39.814Z,2.97
2022-11-06T15:39:33.837Z,2.63
2022-11-06T15:42:15.986Z,3.30
2022-11-06T15:44:51.603Z,2.77
2022-11-06T15:47:29.167Z,2.70
2022-11-06T15:50:17.158Z,2.50
2022-11-06T15:52:52.181Z,2.63
2022-11-06T15:55:28.876Z,2.47
2022-11-06T15:58:18.997Z,3.30
2022-11-06T16:00:54.394Z,3.10
2022-11-06T16:03:46.729Z,3.23
2022-11-06T16:06:22.050Z,6.30
2022-11-06T16:08:57.771Z,5.10
2022-11-06T16:11:34.246Z,3.20
2022-11-06T16:14:14.062Z,3.27
2022-11-06T16:16:54.706Z,3.40
2022-11-06T16:19:36.689Z,3.60
2022-11-06T16:22:16.584Z,3.80
2022-11-06T16:25:18.058Z,5.37
2022-11-06T16:27:53.017Z,6.10
2022-11-06T16:30:27.998Z,5.23
2022-11-06T16:33:04.864Z,3.90
2022-11-06T16:35:44.791Z,3.87
2022-11-06T16:38:42.016Z,3.80
2022-11-06T16:41:57.197Z,3.63
2022-11-06T16:44:41.035Z,4.17
2022-11-06T16:47:21.552Z,3.73
2022-11-06T16:49:58.328Z,4.23
2022-11-06T16:52:41.172Z,3.97
2022-11-06T16:55:16.968Z,4.23
2022-11-06T16:57:59.489Z,4.30
2022-11-06T17:00:34.818Z,5.33
2022-11-06T17:03:20.449Z,4.27
2022-11-06T17:05:57.772Z,5.30
2022-11-06T17:08:41.114Z,4.70
2022-11-06T17:11:21.742Z,4.50
2022-11-06T17:13:57.248Z,5.70
2022-11-06T17:16:50.579Z,4.50
2022-11-06T17:19:27.233Z,5.20
2022-11-06T17:22:02.355Z,4.53
2022-11-06T17:24:38.097Z,5.10
2022-11-06T17:27:13.370Z,4.50
2022-11-06T17:29:50.529Z,4.60
2022-11-06T17:32:25.486Z,4.77
2022-11-06T17:35:00.475Z,5.37
2022-11-06T17:37:36.889Z,4.70
2022-11-06T17:40:12.500Z,5.00
2022-11-06T17:42:47.533Z,5.80
2022-11-06T17:45:22.561Z,4.83
2022-11-06T17:47:57.548Z,4.80
2022-11-06T17:50:52.624Z,5.27
2022-11-06T17:53:27.602Z,5.77
2022-11-06T17:56:04.859Z,6.07
2022-11-06T17:58:39.794Z,5.80
2022-11-06T18:01:15.122Z,5.47
2022-11-06T18:03:50.258Z,5.57
2022-11-06T18:06:25.458Z,5.87
2022-11-06T18:09:05.048Z,5.20
2022-11-06T18:11:40.365Z,5.87
2022-11-06T18:14:15.393Z,5.70
2022-11-06T18:16:50.767Z,5.63
2022-11-06T18:19:26.247Z,6.50
2022-11-06T18:22:06.339Z,6.10
2022-11-06T18:24:41.777Z,5.83
2022-11-06T18:27:16.757Z,5.57
2022-11-06T18:29:51.678Z,5.10
2022-11-06T18:32:26.607Z,5.20
2022-11-06T18:35:02.389Z,4.83
2022-11-06T18:37:37.411Z,5.03
2022-11-06T18:40:13.431Z,4.37
2022-11-06T18:42:48.363Z,4.00
2022-11-06T18:45:23.330Z,4.30
2022-11-06T18:47:58.259Z,4.40
2022-11-06T18:50:37.750Z,4.20
2022-11-06T18:53:13.797Z,4.23
2022-11-06T18:55:48.807Z,4.80
2022-11-06T18:58:26.147Z,4.30
2022-11-06T19:01:10.542Z,5.60
2022-11-06T19:03:46.675Z,4.87
2022-11-06T19:06:22.161Z,5.67
2022-11-06T19:08:57.312Z,4.67
2022-11-06T19:11:32.214Z,4.60
2022-11-06T19:14:07.304Z,6.27
2022-11-06T19:16:42.242Z,6.20
2022-11-06T19:19:25.162Z,5.40
2022-11-06T19:22:00.868Z,6.07
2022-11-06T19:24:35.901Z,5.70
2022-11-06T19:27:10.970Z,6.60
2022-11-06T19:29:45.990Z,6.60
2022-11-06T19:32:21.030Z,5.07
2022-11-06T19:34:56.003Z,3.70
2022-11-06T19:37:32.306Z,4.00
2022-11-06T19:40:08.062Z,2.60
2022-11-06T19:42:43.127Z,2.50
2022-11-06T19:45:18.357Z,2.20
2022-11-06T19:47:53.692Z,2.77
2022-11-06T19:50:46.163Z,1.80
2022-11-06T19:53:24.441Z,2.23
2022-11-06T19:56:03.747Z,1.90
2022-11-06T19:58:38.976Z,1.87
2022-11-06T20:01:14.251Z,1.47
2022-11-06T20:03:49.209Z,1.50
2022-11-06T20:06:24.262Z,1.30
2022-11-06T20:08:59.469Z,1.30
2022-11-06T20:11:35.156Z,1.40
2022-11-06T20:14:10.051Z,1.63
2022-11-06T20:16:44.952Z,1.20
2022-11-06T20:19:19.922Z,1.60
2022-11-06T20:21:54.838Z,1.40
2022-11-06T20:24:29.720Z,1.73
2022-11-06T20:27:10.150Z,1.70
2022-11-06T20:29:46.158Z,2.00
2022-11-06T20:32:21.535Z,1.73
2022-11-06T20:34:56.494Z,1.50
2022-11-06T20:37:32.061Z,1.70
2022-11-06T20:40:08.195Z,1.80
2022-11-06T20:42:43.150Z,1.73
2022-11-06T20:45:18.121Z,1.97
2022-11-06T20:47:53.023Z,1.83
2022-11-06T20:50:27.943Z,1.80
2022-11-06T20:53:02.860Z,1.70
2022-11-06T20:55:37.787Z,1.70
2022-11-06T20:58:12.651Z,1.77
2022-11-06T21:00:47.561Z,1.60
2022-11-06T21:03:22.435Z,1.50
2022-11-06T21:05:59.217Z,1.50
2022-11-06T21:08:36.880Z,1.67
2022-11-06T21:11:19.681Z,1.40
2022-11-06T21:13:55.583Z,1.40
2022-11-06T21:16:34.115Z,1.30
2022-11-06T21:19:09.512Z,1.20
2022-11-06T21:21:44.440Z,1.00
2022-11-06T21:24:19.373Z,1.10
2022-11-06T21:26:55.935Z,1.00
2022-11-06T21:29:30.971Z,1.00
2022-11-06T21:32:05.957Z,0.93
2022-11-06T21:34:40.836Z,0.90
2022-11-06T21:37:15.704Z,1.20
2022-11-06T21:39:50.646Z,1.20
2022-11-06T21:42:25.605Z,1.17
2022-11-06T21:45:00.475Z,1.00
2022-11-06T21:47:35.417Z,1.23
2022-11-06T21:50:10.740Z,1.10
2022-11-06T21:53:05.229Z,0.90
2022-11-06T21:55:58.349Z,0.80
2022-11-06T21:58:33.269Z,0.90
2022-11-06T22:01:08.343Z,0.90
2022-11-06T22:03:43.339Z,1.03
2022-11-06T22:06:23.453Z,0.90
2022-11-06T22:09:00.872Z,0.90
2022-11-06T22:11:38.917Z,1.00
2022-11-06T22:14:16.869Z,0.70
2022-11-06T22:16:52.725Z,0.80
2022-11-06T22:19:27.738Z,0.80
2022-11-06T22:22:02.644Z,1.00
2022-11-06T22:24:37.569Z,0.90
2022-11-06T22:27:12.568Z,0.80
2022-11-06T22:29:47.639Z,0.80
2022-11-06T22:32:22.784Z,0.90
2022-11-06T22:34:57.651Z,0.90
2022-11-06T22:37:32.532Z,0.80
2022-11-06T22:40:08.572Z,0.93
2022-11-06T22:42:48.529Z,0.83
2022-11-06T22:45:24.524Z,0.80
2022-11-06T22:47:59.532Z,0.80
2022-11-06T22:50:34.957Z,0.80
2022-11-06T22:53:14.845Z,0.80
2022-11-06T22:55:55.263Z,0.97
2022-11-06T22:58:30.991Z,0.90
2022-11-06T23:01:06.279Z,0.90
2022-11-06T23:03:41.196Z,0.90
2022-11-06T23:06:16.639Z,0.60
2022-11-06T23:08:52.211Z,0.80
2022-11-06T23:11:29.475Z,1.00
2022-11-06T23:14:08.562Z,0.90
2022-11-06T23:17:00.361Z,0.80
2022-11-06T23:19:35.260Z,0.70
2022-11-06T23:22:28.899Z,0.80
2022-11-06T23:25:09.142Z,1.00
2022-11-06T23:27:49.496Z,0.93
2022-11-06T23:30:25.443Z,0.83
2022-11-06T23:33:00.329Z,0.97
2022-11-06T23:35:35.204Z,0.77
2022-11-06T23:38:10.028Z,0.80
2022-11-06T23:40:44.941Z,0.90
2022-11-06T23:43:19.866Z,1.00
2022-11-06T23:45:54.725Z,0.80
2022-11-06T23:48:29.662Z,0.90
2022-11-06T23:51:04.568Z,0.90
2022-11-06T23:53:39.428Z,1.00
2022-11-06T23:56:15.087Z,0.90
2022-11-06T23:58:50.087Z,0.90
